Megacore Philomena — V7VA4 — position and weather

sailwx.info

Track history (hours):
 
Tides and Currents Weather Stations Pressure Air Temp Water Temp Dewpoint Dewpoint Depression Visibility Wind Speed Wind Dir Waves Ship Positions

Megacore Philomena

Last reported at 2017-Nov-07 07:28 UTC. Time now 2017-Nov-22 22:06 UTC.
Position N 29°60' W 090°26'.
Warning: this ship's position is 15 days out of date.

Length 228 m; draft 12.1 m.

Type: Ship. MMSI: 538004071.

Date/timePositionNaut miles runAvg speedWind from/ knotsBaromVisibWave heightAir tempDewpointWater temp
2017-Nov-07 07:28N 29°60' W 090°26'0 0.1
2017-Nov-07 07:00N 29°60' W 090°26'2 4.4
2017-Nov-07 06:28N 29°58' W 090°24'6 7.8
2017-Nov-07 05:45N 29°58' W 090°17'2 9.9
2017-Nov-07 05:30N 29°58' W 090°15'  
2017-Nov-04 02:24N 25°29' W 079°38'411.2
2017-Nov-04 02:00N 25°33' W 079°38'611.4
2017-Nov-04 01:28N 25°39' W 079°36'711.4
2017-Nov-04 00:49N 25°46' W 079°34'611.5
2017-Nov-04 00:19N 25°52' W 079°32'411.5
2017-Nov-03 23:59N 25°55' W 079°31'611.6
2017-Nov-03 23:30N 26°01' W 079°30'611.5
2017-Nov-03 23:00N 26°06' W 079°28'611.9
2017-Nov-03 22:30N 26°10' W 079°23'  
Track history (hours):
 
Tides and Currents Weather Stations Pressure Air Temp Water Temp Dewpoint Dewpoint Depression Visibility Wind Speed Wind Dir Waves Ship Positions

Megacore Philomena

Last reported at 2017-Nov-07 07:28 UTC. Time now 2017-Nov-22 22:06 UTC.
Position N 29°60' W 090°26'.
Warning: this ship's position is 15 days out of date.

Length 228 m; draft 12.1 m.

Type: Ship. MMSI: 538004071.

Date/timePositionNaut miles runAvg speedWind from/ knotsBaromVisibWave heightAir tempDewpointWater temp
2017-Nov-07 07:28N 29°60' W 090°26'0 0.1
2017-Nov-07 07:00N 29°60' W 090°26'2 4.4
2017-Nov-07 06:28N 29°58' W 090°24'6 7.8
2017-Nov-07 05:45N 29°58' W 090°17'2 9.9
2017-Nov-07 05:30N 29°58' W 090°15'  
2017-Nov-04 02:24N 25°29' W 079°38'411.2
2017-Nov-04 02:00N 25°33' W 079°38'611.4
2017-Nov-04 01:28N 25°39' W 079°36'711.4
2017-Nov-04 00:49N 25°46' W 079°34'611.5
2017-Nov-04 00:19N 25°52' W 079°32'411.5
2017-Nov-03 23:59N 25°55' W 079°31'611.6
2017-Nov-03 23:30N 26°01' W 079°30'611.5
2017-Nov-03 23:00N 26°06' W 079°28'611.9
2017-Nov-03 22:30N 26°10' W 079°23'  

Dump ship's entire track history